Archival Weather

Chicago O'Hare International

Chicago, Illinois (KORD)

Report from: Saturday, December 31, 2022 9:51 AM CST
Current time: Tuesday, February 27, 2024 4:27 AM CST

Current weather – Weather history – Daily summaries
Weather forecast

Temperature-1.7°C (28.9°F)
Dew point-3.9°C (25.0°F)
Winds Calm
Visibility10 mi. (16.1 km)
Clouds Ceiling: Broken clouds 18,000 ft. (5,486 m)
Broken clouds 25,000 ft. (7,620 m)
Altimeter29.95 in.Hg (1014 mB)
Relative humidity85 %
Density altitude-2,030 ft. (-619 m)
Sea-level pressure101.5 kPa (1015 mB, 29.97 in.Hg)
Remarks Automated weather observing station with precipitation discriminator
Flight conditions Visual Meteorological Conditions
Raw dataKORD 311551Z 00000KT 10SM BKN180 BKN250 M02/M04 A2995 RMK AO2 SLP148 T10171039
An error has occurred. This application may no longer respond until reloaded. Reload 🗙